createdAt,value
2022-10-17T00:01:23.196Z,19.60
2022-10-17T00:03:49.880Z,19.60
2022-10-17T00:06:16.635Z,19.60
2022-10-17T00:08:43.811Z,19.60
2022-10-17T00:11:20.792Z,19.60
2022-10-17T00:13:48.218Z,19.60
2022-10-17T00:16:15.395Z,19.60
2022-10-17T00:18:42.114Z,19.60
2022-10-17T00:21:15.007Z,19.60
2022-10-17T00:23:41.665Z,19.60
2022-10-17T00:26:08.322Z,19.60
2022-10-17T00:28:35.032Z,19.60
2022-10-17T00:31:03.671Z,19.60
2022-10-17T00:33:31.034Z,20.30
2022-10-17T00:36:14.743Z,19.60
2022-10-17T00:38:42.342Z,19.60
2022-10-17T00:41:09.850Z,19.60
2022-10-17T00:43:55.444Z,19.70
2022-10-17T00:46:23.146Z,19.60
2022-10-17T00:48:51.070Z,19.60
2022-10-17T00:51:19.589Z,20.00
2022-10-17T00:53:46.673Z,19.60
2022-10-17T00:56:13.553Z,19.60
2022-10-17T00:58:40.232Z,19.60
2022-10-17T01:01:06.876Z,19.60
2022-10-17T01:03:33.682Z,19.60
2022-10-17T01:06:00.512Z,19.50
2022-10-17T01:08:27.440Z,19.50
2022-10-17T01:11:09.359Z,19.60
2022-10-17T01:13:35.975Z,19.50
2022-10-17T01:16:05.688Z,19.50
2022-10-17T01:18:43.960Z,19.50
2022-10-17T01:21:15.530Z,19.50
2022-10-17T01:24:05.993Z,19.80
2022-10-17T01:26:35.656Z,19.50
2022-10-17T01:29:23.012Z,19.50
2022-10-17T01:31:52.714Z,19.50
2022-10-17T01:34:22.293Z,19.50
2022-10-17T01:37:00.136Z,19.50
2022-10-17T01:39:40.751Z,19.50
2022-10-17T01:42:15.272Z,19.50
2022-10-17T01:44:46.618Z,19.50
2022-10-17T01:47:15.646Z,19.70
2022-10-17T01:49:43.205Z,19.50
2022-10-17T01:52:12.566Z,19.70
2022-10-17T01:54:51.330Z,19.90
2022-10-17T01:57:30.630Z,19.50
2022-10-17T01:59:57.738Z,19.50
2022-10-17T02:02:26.435Z,19.50
2022-10-17T02:04:55.011Z,19.50
2022-10-17T02:07:21.784Z,19.50
2022-10-17T02:09:48.434Z,19.60
2022-10-17T02:12:34.001Z,19.70
2022-10-17T02:15:03.510Z,19.50
2022-10-17T02:17:45.574Z,19.50
2022-10-17T02:20:31.287Z,19.50
2022-10-17T02:23:01.012Z,19.50
2022-10-17T02:25:31.301Z,19.40
2022-10-17T02:28:06.062Z,19.40
2022-10-17T02:30:40.091Z,19.50
2022-10-17T02:33:09.447Z,19.50
2022-10-17T02:35:44.660Z,19.50
2022-10-17T02:38:12.235Z,19.50
2022-10-17T02:40:39.475Z,19.40
2022-10-17T02:43:06.506Z,19.40
2022-10-17T02:45:36.077Z,19.40
2022-10-17T02:48:04.878Z,19.40
2022-10-17T02:51:07.164Z,19.40
2022-10-17T02:53:39.251Z,19.50
2022-10-17T02:56:10.747Z,19.40
2022-10-17T02:58:38.180Z,19.40
2022-10-17T03:01:05.099Z,19.20
2022-10-17T03:03:32.510Z,19.40
2022-10-17T03:05:59.179Z,19.50
2022-10-17T03:08:26.074Z,19.70
2022-10-17T03:10:52.910Z,19.40
2022-10-17T03:13:19.577Z,19.40
2022-10-17T03:15:46.235Z,19.40
2022-10-17T03:18:12.913Z,19.90
2022-10-17T03:20:39.648Z,19.80
2022-10-17T03:23:06.331Z,19.90
2022-10-17T03:25:33.012Z,19.40
2022-10-17T03:28:00.502Z,19.40
2022-10-17T03:30:28.611Z,19.40
2022-10-17T03:32:55.219Z,19.40
2022-10-17T03:35:21.935Z,19.40
2022-10-17T03:37:48.584Z,19.40
2022-10-17T03:40:15.363Z,19.40
2022-10-17T03:42:42.154Z,19.40
2022-10-17T03:45:08.954Z,19.40
2022-10-17T03:47:35.661Z,19.40
2022-10-17T03:50:02.323Z,19.40
2022-10-17T03:52:28.949Z,19.40
2022-10-17T03:54:55.620Z,19.50
2022-10-17T03:57:22.322Z,19.90
2022-10-17T03:59:50.160Z,19.60
2022-10-17T04:02:16.955Z,19.60
2022-10-17T04:04:43.678Z,19.60
2022-10-17T04:07:10.307Z,19.60
2022-10-17T04:09:37.185Z,19.60
2022-10-17T04:12:03.977Z,19.60
2022-10-17T04:14:30.643Z,19.60
2022-10-17T04:16:58.558Z,19.80
2022-10-17T04:19:26.002Z,20.10
2022-10-17T04:21:52.716Z,19.80
2022-10-17T04:24:19.566Z,19.90
2022-10-17T04:26:46.292Z,20.00
2022-10-17T04:29:12.960Z,20.50
2022-10-17T04:31:39.670Z,20.40
2022-10-17T04:34:06.380Z,20.60
2022-10-17T04:36:33.073Z,20.70
2022-10-17T04:39:01.831Z,20.70
2022-10-17T04:41:28.624Z,20.20
2022-10-17T04:43:55.389Z,20.20
2022-10-17T04:46:22.337Z,20.20
2022-10-17T04:48:49.035Z,20.10
2022-10-17T04:51:18.064Z,20.30
2022-10-17T04:53:46.522Z,20.60
2022-10-17T04:56:14.509Z,20.70
2022-10-17T04:58:41.613Z,20.00
2022-10-17T05:01:09.595Z,20.30
2022-10-17T05:03:36.967Z,20.00
2022-10-17T05:06:23.951Z,20.00
2022-10-17T05:08:50.987Z,20.00
2022-10-17T05:11:22.116Z,20.00
2022-10-17T05:13:55.895Z,20.00
2022-10-17T05:16:24.414Z,20.00
2022-10-17T05:18:53.035Z,20.00
2022-10-17T05:21:20.790Z,20.70
2022-10-17T05:23:47.700Z,20.00
2022-10-17T05:26:14.804Z,20.00
2022-10-17T05:28:41.646Z,20.00
2022-10-17T05:31:09.218Z,19.90
2022-10-17T05:33:36.403Z,19.90
2022-10-17T05:36:03.463Z,19.90
2022-10-17T05:38:30.170Z,19.90
2022-10-17T05:41:00.470Z,19.80
2022-10-17T05:43:27.688Z,19.90
2022-10-17T05:45:54.951Z,19.90
2022-10-17T05:48:22.079Z,19.90
2022-10-17T05:50:48.897Z,19.90
2022-10-17T05:53:16.187Z,19.90
2022-10-17T05:55:42.931Z,19.90
2022-10-17T05:58:14.307Z,19.90
2022-10-17T06:00:49.151Z,20.40
2022-10-17T06:03:15.892Z,20.30
2022-10-17T06:05:42.536Z,19.90
2022-10-17T06:08:09.339Z,20.20
2022-10-17T06:10:35.960Z,19.90
2022-10-17T06:13:02.609Z,19.90
2022-10-17T06:15:29.318Z,19.90
2022-10-17T06:17:55.953Z,19.90
2022-10-17T06:20:22.547Z,19.90
2022-10-17T06:22:49.302Z,19.90
2022-10-17T06:25:15.998Z,19.90
2022-10-17T06:27:42.885Z,19.90
2022-10-17T06:30:09.726Z,19.90
2022-10-17T06:32:36.390Z,19.90
2022-10-17T06:35:03.039Z,19.90
2022-10-17T06:37:36.234Z,19.90
2022-10-17T06:40:04.079Z,19.90
2022-10-17T06:42:31.342Z,19.90
2022-10-17T06:44:57.951Z,19.90
2022-10-17T06:47:24.613Z,19.90
2022-10-17T06:49:51.274Z,19.90
2022-10-17T06:52:17.986Z,19.90
2022-10-17T06:54:44.709Z,19.90
2022-10-17T06:57:11.403Z,19.90
2022-10-17T06:59:38.027Z,19.90
2022-10-17T07:02:05.647Z,19.80
2022-10-17T07:04:32.428Z,19.90
2022-10-17T07:09:26.844Z,19.90
2022-10-17T07:11:53.546Z,20.50
2022-10-17T07:14:20.165Z,19.90
2022-10-17T07:16:46.889Z,19.90
2022-10-17T07:19:13.605Z,20.40
2022-10-17T07:21:40.252Z,19.90
2022-10-17T07:24:07.543Z,19.90
2022-10-17T07:26:34.242Z,19.90
2022-10-17T07:29:01.816Z,19.90
2022-10-17T07:31:28.608Z,19.90
2022-10-17T07:33:55.248Z,20.00
2022-10-17T07:36:21.923Z,20.00
2022-10-17T07:38:48.584Z,19.90
2022-10-17T07:41:19.254Z,19.90
2022-10-17T07:43:56.331Z,19.90
2022-10-17T07:46:23.041Z,20.00
2022-10-17T07:48:49.653Z,20.00
2022-10-17T07:51:17.746Z,20.30
2022-10-17T07:53:48.064Z,20.00
2022-10-17T07:56:15.867Z,20.00
2022-10-17T07:58:42.505Z,20.10
2022-10-17T08:01:14.910Z,20.00
2022-10-17T08:03:43.566Z,20.00
2022-10-17T08:06:10.243Z,20.00
2022-10-17T08:08:36.893Z,20.00
2022-10-17T08:11:04.984Z,20.00
2022-10-17T08:13:32.001Z,20.00
2022-10-17T08:15:59.560Z,20.00
2022-10-17T08:18:26.351Z,20.00
2022-10-17T08:20:56.735Z,20.00
2022-10-17T08:23:26.112Z,20.00
2022-10-17T08:25:52.751Z,20.00
2022-10-17T08:28:19.448Z,20.00
2022-10-17T08:30:46.042Z,20.10
2022-10-17T08:33:12.696Z,20.10
2022-10-17T08:35:39.363Z,20.10
2022-10-17T08:38:09.095Z,20.10
2022-10-17T08:40:42.626Z,20.00
2022-10-17T08:43:21.697Z,20.10
2022-10-17T08:45:51.494Z,20.10
2022-10-17T08:48:19.619Z,20.00
2022-10-17T08:50:46.381Z,20.20
2022-10-17T08:53:21.430Z,20.10
2022-10-17T08:55:49.218Z,20.10
2022-10-17T08:58:15.883Z,20.10
2022-10-17T09:00:46.295Z,20.10
2022-10-17T09:03:15.757Z,20.30
2022-10-17T09:05:42.597Z,20.10
2022-10-17T09:08:14.540Z,20.50
2022-10-17T09:10:46.680Z,20.10
2022-10-17T09:13:23.463Z,20.10
2022-10-17T09:15:56.056Z,20.00
2022-10-17T09:18:27.827Z,20.10
2022-10-17T09:20:58.243Z,20.10
2022-10-17T09:23:27.213Z,20.10
2022-10-17T09:25:55.132Z,20.10
2022-10-17T09:28:30.515Z,20.10
2022-10-17T09:30:57.234Z,20.10
2022-10-17T09:33:59.208Z,20.10
2022-10-17T09:36:28.358Z,20.10
2022-10-17T09:39:15.371Z,20.10
2022-10-17T09:41:46.846Z,20.10
2022-10-17T09:44:19.162Z,20.10
2022-10-17T09:47:05.637Z,20.20
2022-10-17T09:49:33.760Z,20.20
2022-10-17T09:52:04.489Z,20.20
2022-10-17T09:54:42.891Z,20.20
2022-10-17T09:57:10.313Z,20.20
2022-10-17T09:59:47.908Z,20.20
2022-10-17T10:02:21.794Z,20.10
2022-10-17T10:05:03.612Z,20.10
2022-10-17T10:07:31.843Z,20.20
2022-10-17T10:09:59.320Z,20.20
2022-10-17T10:12:31.680Z,20.20
2022-10-17T10:14:58.885Z,20.20
2022-10-17T10:17:27.074Z,20.20
2022-10-17T10:19:53.687Z,20.30
2022-10-17T10:22:21.980Z,20.40
2022-10-17T10:25:06.410Z,20.20
2022-10-17T10:29:59.824Z,20.20
2022-10-17T10:32:32.286Z,20.10
2022-10-17T10:35:00.616Z,20.20
2022-10-17T10:37:34.013Z,20.20
2022-10-17T10:40:05.894Z,20.20
2022-10-17T10:42:37.221Z,20.20
2022-10-17T10:45:46.807Z,20.20
2022-10-17T10:48:12.367Z,20.30
2022-10-17T10:50:59.251Z,20.40
2022-10-17T10:53:42.690Z,20.50
2022-10-17T10:56:17.120Z,20.50
2022-10-17T10:58:58.720Z,20.60
2022-10-17T11:01:25.318Z,20.60
2022-10-17T11:03:56.366Z,20.60
2022-10-17T11:06:25.662Z,20.70
2022-10-17T11:09:05.528Z,20.50
2022-10-17T11:11:34.525Z,20.50
2022-10-17T11:14:05.952Z,20.50
2022-10-17T11:16:32.569Z,20.70
2022-10-17T11:19:04.866Z,20.50
2022-10-17T11:21:37.818Z,20.50
2022-10-17T11:24:12.503Z,20.00
2022-10-17T11:26:42.187Z,20.50
2022-10-17T11:29:11.988Z,20.50
2022-10-17T11:31:40.151Z,20.50
2022-10-17T11:34:20.197Z,20.70
2022-10-17T11:36:48.825Z,20.50
2022-10-17T11:39:34.742Z,20.50
2022-10-17T11:42:07.227Z,20.50
2022-10-17T11:44:38.160Z,20.50
2022-10-17T11:47:04.771Z,20.50
2022-10-17T11:49:40.666Z,20.40
2022-10-17T11:52:08.571Z,20.40
2022-10-17T11:54:38.152Z,20.40
2022-10-17T11:57:14.102Z,20.40
2022-10-17T11:59:57.051Z,20.40
2022-10-17T12:02:27.011Z,20.40
2022-10-17T12:04:59.054Z,20.40
2022-10-17T12:07:25.731Z,20.40
2022-10-17T12:10:01.706Z,20.40
2022-10-17T12:12:32.661Z,20.40
2022-10-17T12:15:26.261Z,20.40
2022-10-17T12:18:02.443Z,20.40
2022-10-17T12:20:32.171Z,20.40
2022-10-17T12:23:20.015Z,20.40
2022-10-17T12:25:51.766Z,20.40
2022-10-17T12:28:37.158Z,20.40
2022-10-17T12:31:16.090Z,20.40
2022-10-17T12:33:45.703Z,20.40
2022-10-17T12:36:18.404Z,20.30
2022-10-17T12:38:49.870Z,20.30
2022-10-17T12:41:17.350Z,20.30
2022-10-17T12:46:34.811Z,20.30
2022-10-17T12:49:03.311Z,20.30
2022-10-17T12:51:35.602Z,20.30
2022-10-17T12:54:13.572Z,20.30
2022-10-17T12:56:40.254Z,20.40
2022-10-17T12:59:14.779Z,20.30
2022-10-17T13:01:43.816Z,20.20
2022-10-17T13:04:10.833Z,20.30
2022-10-17T13:06:40.429Z,20.20
2022-10-17T13:09:16.370Z,20.30
2022-10-17T13:11:43.265Z,20.30
2022-10-17T13:14:13.735Z,20.30
2022-10-17T13:16:51.075Z,20.30
2022-10-17T13:19:19.853Z,20.30
2022-10-17T13:22:06.303Z,20.30
2022-10-17T13:24:35.982Z,20.20
2022-10-17T13:27:03.748Z,20.20
2022-10-17T13:29:32.087Z,20.30
2022-10-17T13:32:01.439Z,20.90
2022-10-17T13:34:28.476Z,20.20
2022-10-17T13:36:56.352Z,20.20
2022-10-17T13:39:38.315Z,20.50
2022-10-17T13:42:24.955Z,20.20
2022-10-17T13:44:52.076Z,20.20
2022-10-17T13:47:26.969Z,20.20
2022-10-17T13:49:55.484Z,20.20
2022-10-17T13:52:24.658Z,20.10
2022-10-17T13:54:51.874Z,20.50
2022-10-17T13:57:24.015Z,20.10
2022-10-17T13:59:53.528Z,20.10
2022-10-17T14:02:21.638Z,20.20
2022-10-17T14:05:16.300Z,20.10
2022-10-17T14:08:16.724Z,20.20
2022-10-17T14:10:44.390Z,20.10
2022-10-17T14:13:24.756Z,20.10
2022-10-17T14:15:52.637Z,20.10
2022-10-17T14:18:35.786Z,20.10
2022-10-17T14:23:50.668Z,20.10
2022-10-17T14:26:21.934Z,20.40
2022-10-17T14:28:50.438Z,20.10
2022-10-17T14:31:17.130Z,20.10
2022-10-17T14:33:49.745Z,20.10
2022-10-17T14:36:18.080Z,20.00
2022-10-17T14:38:46.316Z,20.00
2022-10-17T14:41:41.855Z,20.00
2022-10-17T14:44:14.057Z,20.00
2022-10-17T14:46:47.205Z,20.00
2022-10-17T14:49:28.633Z,20.00
2022-10-17T14:52:17.686Z,20.00
2022-10-17T14:54:46.601Z,20.00
2022-10-17T14:57:27.168Z,20.00
2022-10-17T14:59:55.819Z,20.00
2022-10-17T15:02:26.914Z,20.50
2022-10-17T15:04:53.918Z,20.00
2022-10-17T15:07:23.997Z,20.00
2022-10-17T15:09:53.248Z,20.50
2022-10-17T15:12:21.453Z,20.00
2022-10-17T15:14:48.608Z,20.00
2022-10-17T15:17:18.445Z,20.30
2022-10-17T15:19:45.133Z,20.00
2022-10-17T15:22:11.812Z,20.10
2022-10-17T15:24:38.638Z,20.00
2022-10-17T15:27:32.708Z,20.00
2022-10-17T15:29:59.640Z,20.10
2022-10-17T15:32:26.380Z,20.00
2022-10-17T15:34:53.021Z,20.10
2022-10-17T15:37:20.837Z,20.10
2022-10-17T15:39:55.681Z,20.10
2022-10-17T15:42:23.114Z,20.20
2022-10-17T15:44:50.330Z,19.80
2022-10-17T15:47:23.197Z,20.70
2022-10-17T15:49:49.923Z,20.20
2022-10-17T15:52:16.574Z,20.20
2022-10-17T15:54:43.209Z,20.30
2022-10-17T15:57:16.255Z,20.20
2022-10-17T15:59:42.922Z,20.30
2022-10-17T16:02:12.747Z,20.20
2022-10-17T16:04:39.630Z,20.20
2022-10-17T16:07:07.575Z,20.30
2022-10-17T16:09:34.754Z,20.30
2022-10-17T16:12:01.810Z,20.30
2022-10-17T16:14:28.515Z,20.30
2022-10-17T16:16:55.248Z,20.20
2022-10-17T16:19:22.771Z,20.30
2022-10-17T16:21:49.466Z,20.20
2022-10-17T16:24:17.791Z,20.30
2022-10-17T16:26:44.411Z,20.30
2022-10-17T16:29:11.177Z,20.30
2022-10-17T16:31:40.387Z,20.30
2022-10-17T16:34:08.963Z,20.70
2022-10-17T16:36:35.706Z,20.20
2022-10-17T16:39:02.506Z,20.20
2022-10-17T16:41:30.543Z,20.20
2022-10-17T16:44:01.619Z,20.30
2022-10-17T16:46:29.636Z,20.30
2022-10-17T16:48:56.655Z,20.30
2022-10-17T16:51:23.344Z,20.30
2022-10-17T16:53:50.752Z,20.30
2022-10-17T16:56:18.390Z,20.30
2022-10-17T16:58:45.189Z,20.30
2022-10-17T17:01:13.303Z,20.30
2022-10-17T17:03:41.410Z,20.30
2022-10-17T17:06:09.002Z,20.30
2022-10-17T17:08:38.839Z,20.60
2022-10-17T17:11:09.237Z,20.30
2022-10-17T17:13:36.026Z,20.30
2022-10-17T17:16:32.805Z,20.30
2022-10-17T17:19:00.572Z,20.30
2022-10-17T17:21:27.881Z,20.20
2022-10-17T17:23:57.308Z,20.30
2022-10-17T17:26:24.544Z,20.40
2022-10-17T17:28:51.507Z,20.30
2022-10-17T17:31:19.956Z,20.30
2022-10-17T17:33:46.937Z,20.20
2022-10-17T17:36:19.574Z,20.20
2022-10-17T17:38:46.531Z,20.20
2022-10-17T17:41:13.974Z,20.20
2022-10-17T17:43:41.099Z,20.30
2022-10-17T17:46:07.782Z,20.20
2022-10-17T17:48:36.743Z,20.20
2022-10-17T17:51:04.427Z,20.20
2022-10-17T17:53:31.350Z,20.20
2022-10-17T17:56:05.323Z,20.30
2022-10-17T17:58:32.296Z,20.20
2022-10-17T18:00:59.134Z,20.20
2022-10-17T18:03:26.037Z,20.20
2022-10-17T18:05:52.930Z,20.10
2022-10-17T18:08:19.794Z,20.20
2022-10-17T18:10:50.250Z,20.20
2022-10-17T18:13:17.172Z,20.20
2022-10-17T18:15:44.359Z,20.30
2022-10-17T18:18:10.968Z,20.40
2022-10-17T18:20:41.564Z,20.50
2022-10-17T18:23:08.904Z,20.60
2022-10-17T18:25:36.082Z,20.70
2022-10-17T18:28:02.922Z,20.70
2022-10-17T18:30:32.300Z,20.70
2022-10-17T18:33:01.118Z,20.70
2022-10-17T18:35:27.718Z,20.70
2022-10-17T18:37:56.769Z,20.70
2022-10-17T18:40:23.506Z,20.60
2022-10-17T18:42:50.243Z,20.60
2022-10-17T18:45:17.475Z,20.60
2022-10-17T18:47:47.130Z,20.50
2022-10-17T18:50:14.360Z,20.60
2022-10-17T18:52:41.062Z,20.50
2022-10-17T18:55:07.945Z,20.50
2022-10-17T18:57:34.581Z,20.50
2022-10-17T19:00:01.193Z,20.50
2022-10-17T19:02:27.891Z,20.50
2022-10-17T19:04:54.503Z,20.50
2022-10-17T19:07:21.156Z,20.50
2022-10-17T19:09:48.324Z,20.80
2022-10-17T19:12:14.924Z,20.50
2022-10-17T19:14:41.636Z,20.50
2022-10-17T19:17:08.271Z,20.50
2022-10-17T19:19:35.101Z,20.40
2022-10-17T19:22:03.422Z,20.40
2022-10-17T19:24:30.039Z,20.40
2022-10-17T19:26:58.099Z,20.40
2022-10-17T19:29:25.954Z,20.40
2022-10-17T19:31:52.954Z,20.40
2022-10-17T19:34:19.882Z,20.40
2022-10-17T19:36:46.785Z,20.40
2022-10-17T19:39:14.802Z,19.90
2022-10-17T19:41:42.250Z,20.40
2022-10-17T19:44:09.032Z,20.40
2022-10-17T19:46:35.897Z,20.40
2022-10-17T19:49:02.851Z,20.40
2022-10-17T19:51:29.528Z,20.40
2022-10-17T19:54:00.313Z,20.30
2022-10-17T19:56:28.823Z,20.60
2022-10-17T19:58:57.014Z,20.30
2022-10-17T20:01:25.040Z,20.30
2022-10-17T20:03:52.386Z,20.30
2022-10-17T20:06:19.387Z,20.30
2022-10-17T20:08:46.045Z,20.30
2022-10-17T20:11:14.698Z,20.40
2022-10-17T20:13:41.437Z,20.20
2022-10-17T20:16:10.935Z,20.20
2022-10-17T20:18:38.259Z,20.20
2022-10-17T20:21:06.430Z,20.20
2022-10-17T20:23:33.088Z,20.20
2022-10-17T20:26:08.666Z,20.20
2022-10-17T20:28:45.873Z,20.20
2022-10-17T20:31:12.834Z,20.20
2022-10-17T20:33:41.446Z,20.20
2022-10-17T20:36:10.796Z,20.20
2022-10-17T20:38:37.696Z,20.20
2022-10-17T20:41:05.532Z,20.20
2022-10-17T20:43:32.587Z,20.20
2022-10-17T20:46:09.644Z,20.20
2022-10-17T20:48:42.715Z,20.10
2022-10-17T20:51:10.047Z,20.10
2022-10-17T20:53:37.716Z,20.30
2022-10-17T20:56:09.148Z,20.10
2022-10-17T20:58:35.982Z,20.10
2022-10-17T21:01:09.246Z,20.10
2022-10-17T21:03:37.886Z,20.10
2022-10-17T21:06:08.396Z,20.10
2022-10-17T21:08:35.089Z,20.10
2022-10-17T21:11:08.903Z,20.10
2022-10-17T21:13:35.487Z,20.10
2022-10-17T21:16:06.309Z,20.10
2022-10-17T21:18:32.946Z,20.10
2022-10-17T21:21:16.563Z,20.10
2022-10-17T21:23:44.665Z,20.10
2022-10-17T21:26:12.703Z,20.10
2022-10-17T21:28:40.141Z,20.10
2022-10-17T21:31:27.072Z,20.10
2022-10-17T21:33:57.873Z,20.00
2022-10-17T21:36:25.178Z,20.10
2022-10-17T21:38:52.914Z,20.00
2022-10-17T21:41:20.819Z,20.00
2022-10-17T21:43:48.023Z,20.00
2022-10-17T21:46:16.535Z,20.00
2022-10-17T21:48:43.885Z,20.00
2022-10-17T21:51:11.779Z,20.00
2022-10-17T21:53:38.622Z,20.00
2022-10-17T21:56:06.640Z,20.00
2022-10-17T21:58:33.706Z,20.00
2022-10-17T22:01:07.593Z,20.20
2022-10-17T22:03:35.151Z,20.00
2022-10-17T22:06:18.423Z,20.00
2022-10-17T22:08:48.821Z,20.00
2022-10-17T22:11:18.577Z,20.00
2022-10-17T22:13:45.532Z,20.00
2022-10-17T22:16:13.230Z,20.00
2022-10-17T22:18:40.350Z,20.00
2022-10-17T22:21:10.131Z,20.00
2022-10-17T22:23:38.198Z,20.00
2022-10-17T22:26:05.635Z,20.00
2022-10-17T22:28:32.385Z,20.00
2022-10-17T22:30:59.043Z,20.00
2022-10-17T22:33:25.872Z,20.00
2022-10-17T22:35:52.518Z,20.00
2022-10-17T22:38:19.145Z,20.00
2022-10-17T22:40:46.150Z,20.00
2022-10-17T22:43:13.219Z,20.00
2022-10-17T22:45:40.117Z,20.00
2022-10-17T22:48:07.372Z,20.00
2022-10-17T22:50:34.003Z,20.00
2022-10-17T22:53:00.719Z,20.00
2022-10-17T22:55:27.644Z,19.90
2022-10-17T22:57:54.370Z,19.90
2022-10-17T23:00:21.044Z,19.90
2022-10-17T23:02:47.710Z,19.90
2022-10-17T23:05:14.309Z,19.90
2022-10-17T23:07:40.942Z,19.90
2022-10-17T23:10:07.731Z,19.90
2022-10-17T23:12:34.415Z,19.90
2022-10-17T23:15:01.096Z,20.30
2022-10-17T23:17:27.828Z,19.90
2022-10-17T23:19:57.029Z,19.90
2022-10-17T23:22:24.344Z,19.90
2022-10-17T23:24:51.016Z,19.90
2022-10-17T23:27:17.686Z,19.90
2022-10-17T23:29:44.360Z,19.90
2022-10-17T23:32:10.955Z,19.90
2022-10-17T23:34:37.565Z,19.90
2022-10-17T23:37:04.205Z,19.90
2022-10-17T23:39:30.827Z,20.30
2022-10-17T23:41:57.418Z,19.90
2022-10-17T23:44:24.388Z,19.90
2022-10-17T23:46:51.134Z,19.90
2022-10-17T23:49:17.754Z,19.90
2022-10-17T23:51:44.390Z,19.90
2022-10-17T23:54:11.135Z,19.90
2022-10-17T23:56:37.794Z,19.90
2022-10-17T23:59:04.493Z,20.10
